Time;durP1;ratioP1;P1;durP2;ratioP2;P2;SDS_P1;SDS_P2;PMS_P1;PMS_P2;Temp;Humidity;BMP_temperature;BMP_pressure;BME280_temperature;BME280_humidity;BME280_pressure;Samples;Min_cycle;Max_cycle;Signal;HPM_P1;HPM_P2
2024/03/15 05:07:38;;;;;;;0.30;0.20;;;10.20;99.90;;;;;;5559202;23;20290;-61
2024/03/15 05:10:04;;;;;;;0.30;0.30;;;10.20;99.90;;;;;;4919502;29;20188;-61
2024/03/15 05:12:30;;;;;;;0.30;0.30;;;10.30;99.90;;;;;;4919433;29;20205;-60
2024/03/15 05:14:56;;;;;;;0.40;0.40;;;10.30;99.90;;;;;;4918837;29;20375;-61
2024/03/15 05:17:21;;;;;;;0.50;0.50;;;10.40;99.90;;;;;;4919278;29;20287;-62
2024/03/15 05:19:47;;;;;;;0.30;0.27;;;10.40;99.90;;;;;;4919362;29;20649;-61
2024/03/15 05:22:12;;;;;;;0.30;0.27;;;10.40;99.90;;;;;;4918997;29;20210;-61
2024/03/15 05:24:38;;;;;;;0.30;0.30;;;10.50;99.90;;;;;;4919101;29;20179;-62
2024/03/15 05:27:04;;;;;;;1.00;0.73;;;10.60;99.90;;;;;;4919068;29;20200;-61
2024/03/15 05:29:30;;;;;;;0.40;0.40;;;10.60;99.90;;;;;;4917783;29;20173;-61
2024/03/15 05:31:55;;;;;;;0.30;0.30;;;10.70;99.90;;;;;;4919052;29;20944;-61
2024/03/15 05:34:21;;;;;;;0.30;0.30;;;10.70;99.90;;;;;;4918908;29;20174;-61
2024/03/15 05:36:46;;;;;;;0.30;0.30;;;10.70;99.90;;;;;;4915853;29;20611;-60
2024/03/15 05:39:12;;;;;;;0.33;0.33;;;10.70;99.90;;;;;;4918443;29;20180;-59
2024/03/15 05:41:39;;;;;;;0.30;0.30;;;10.70;99.90;;;;;;4918689;29;20231;-60
2024/03/15 05:44:05;;;;;;;0.30;0.30;;;10.70;99.90;;;;;;4917486;29;20184;-60
2024/03/15 05:46:32;;;;;;;0.30;0.30;;;10.70;99.90;;;;;;4918256;29;20445;-61
2024/03/15 05:48:58;;;;;;;0.30;0.30;;;10.60;99.90;;;;;;4918645;29;20561;-61
2024/03/15 05:51:24;;;;;;;0.30;0.30;;;10.60;99.90;;;;;;4918636;29;20168;-61
2024/03/15 05:53:50;;;;;;;2.07;1.90;;;10.50;99.90;;;;;;4918417;29;20179;-61
2024/03/15 05:56:16;;;;;;;0.30;0.30;;;10.50;99.90;;;;;;4918187;29;20547;-61
2024/03/15 05:58:41;;;;;;;1.40;1.30;;;10.50;99.90;;;;;;4918506;29;20413;-61
2024/03/15 06:01:09;;;;;;;0.30;0.30;;;10.50;99.90;;;;;;4918490;29;20899;-61
2024/03/15 06:03:35;;;;;;;0.33;0.33;;;10.60;99.90;;;;;;4918141;29;20263;-61
2024/03/15 06:06:06;;;;;;;0.30;0.30;;;10.70;99.90;;;;;;4917737;29;21007;-60
2024/03/15 06:08:32;;;;;;;0.40;0.40;;;10.80;99.90;;;;;;4917788;29;20200;-61
2024/03/15 06:10:58;;;;;;;0.50;0.50;;;10.80;99.90;;;;;;4918243;29;20411;-60
2024/03/15 06:13:25;;;;;;;0.30;0.30;;;10.90;99.90;;;;;;4918319;29;20260;-61
2024/03/15 06:15:51;;;;;;;0.30;0.30;;;10.90;99.90;;;;;;4917517;29;20437;-61
2024/03/15 06:18:16;;;;;;;0.30;0.30;;;11.00;99.90;;;;;;4917757;29;20480;-61
2024/03/15 06:20:42;;;;;;;0.30;0.30;;;11.00;99.90;;;;;;4917772;29;20456;-61
2024/03/15 06:23:08;;;;;;;0.30;0.30;;;11.00;99.90;;;;;;4917972;29;20307;-61
2024/03/15 06:25:34;;;;;;;0.30;0.30;;;11.00;99.90;;;;;;4917778;29;20650;-60
2024/03/15 06:28:06;;;;;;;0.30;0.30;;;11.10;99.90;;;;;;4917829;29;20398;-62
2024/03/15 06:30:40;;;;;;;0.40;0.40;;;11.10;99.90;;;;;;4917877;29;20170;-61
2024/03/15 06:33:05;;;;;;;0.30;0.30;;;11.10;99.90;;;;;;4917987;29;20433;-61
2024/03/15 06:35:31;;;;;;;0.30;0.30;;;11.20;99.90;;;;;;4917400;29;20866;-60
2024/03/15 06:38:17;;;;;;;0.40;0.40;;;11.30;99.90;;;;;;4917702;29;20189;-60
2024/03/15 06:40:45;;;;;;;0.30;0.30;;;11.50;99.90;;;;;;4917536;29;20504;-60
2024/03/15 06:43:14;;;;;;;0.30;0.30;;;11.80;99.90;;;;;;4917388;29;20421;-61
2024/03/15 06:48:20;;;;;;;0.30;0.30;;;12.30;99.90;;;;;;4915440;29;20438;-60
2024/03/15 06:50:48;;;;;;;0.30;0.30;;;12.60;99.90;;;;;;4917219;29;20417;-60
2024/03/15 06:53:19;;;;;;;0.30;0.30;;;12.80;99.90;;;;;;4917203;29;20932;-60
2024/03/15 06:55:46;;;;;;;0.30;0.30;;;13.00;99.90;;;;;;4916839;29;20412;-61
2024/03/15 06:58:12;;;;;;;0.50;0.50;;;13.20;99.90;;;;;;4917223;29;20817;-61
2024/03/15 07:00:39;;;;;;;0.30;0.30;;;13.30;99.90;;;;;;4917193;29;20468;-60
2024/03/15 07:03:07;;;;;;;0.30;0.30;;;13.40;99.90;;;;;;4917164;29;20497;-61
2024/03/15 07:05:32;;;;;;;0.40;0.40;;;13.50;99.90;;;;;;4916772;29;20944;-61
2024/03/15 07:07:58;;;;;;;0.30;0.30;;;13.70;99.90;;;;;;4917164;29;20429;-61
2024/03/15 07:10:24;;;;;;;0.30;0.30;;;14.00;99.90;;;;;;4917091;29;20552;-61
2024/03/15 07:12:51;;;;;;;0.40;0.40;;;14.40;99.90;;;;;;4917184;29;20415;-61
2024/03/15 07:15:18;;;;;;;0.30;0.30;;;14.90;99.90;;;;;;4916747;29;20188;-62
2024/03/15 07:17:44;;;;;;;0.37;0.37;;;15.50;99.90;;;;;;4917089;29;20415;-61
2024/03/15 07:20:12;;;;;;;0.30;0.20;;;16.10;99.90;;;;;;4916660;29;20424;-62
2024/03/15 07:22:41;;;;;;;0.40;0.40;;;16.60;99.90;;;;;;4916757;29;20568;-62
2024/03/15 07:25:10;;;;;;;1.20;1.20;;;16.80;99.90;;;;;;4916606;29;20418;-61
2024/03/15 07:27:36;;;;;;;1.90;1.80;;;17.30;99.90;;;;;;4916828;29;20468;-61
2024/03/15 07:30:04;;;;;;;0.30;0.30;;;18.00;99.00;;;;;;4916563;29;20512;-61
2024/03/15 07:32:30;;;;;;;0.30;0.20;;;18.80;97.50;;;;;;4916667;29;20943;-61
2024/03/15 07:34:55;;;;;;;0.30;0.30;;;19.70;95.20;;;;;;4916334;29;20410;-61
2024/03/15 07:37:22;;;;;;;0.30;0.20;;;20.70;93.70;;;;;;4916514;29;20448;-61
2024/03/15 07:39:48;;;;;;;0.30;0.20;;;21.50;91.40;;;;;;4916843;29;20176;-62
2024/03/15 07:42:14;;;;;;;0.30;0.30;;;22.20;90.90;;;;;;4916852;29;20783;-62
2024/03/15 07:44:40;;;;;;;0.30;0.30;;;22.70;90.60;;;;;;4916484;29;20174;-62
2024/03/15 07:47:06;;;;;;;0.40;0.40;;;23.20;87.60;;;;;;4916611;29;20457;-62
2024/03/15 07:49:32;;;;;;;0.30;0.20;;;23.50;85.80;;;;;;4916482;29;20178;-62
2024/03/15 07:51:58;;;;;;;0.30;0.30;;;23.90;84.30;;;;;;4916715;29;20400;-62
2024/03/15 07:54:23;;;;;;;1.83;0.80;;;24.20;83.00;;;;;;4916452;29;20205;-62
2024/03/15 07:56:49;;;;;;;0.63;0.60;;;24.40;81.50;;;;;;4916505;29;20553;-62
2024/03/15 07:59:18;;;;;;;0.30;0.27;;;24.60;81.30;;;;;;4917797;29;20189;-62
2024/03/15 08:01:44;;;;;;;0.40;0.40;;;24.70;80.20;;;;;;4920626;29;20206;-62
2024/03/15 08:04:09;;;;;;;1.33;0.40;;;25.10;79.80;;;;;;4920356;29;20474;-62
2024/03/15 08:06:38;;;;;;;0.30;0.30;;;25.30;79.20;;;;;;4919948;29;20197;-62
2024/03/15 08:09:05;;;;;;;0.30;0.20;;;25.80;78.40;;;;;;4920261;29;20561;-62
2024/03/15 08:11:34;;;;;;;0.30;0.30;;;26.00;75.40;;;;;;4920414;29;20429;-62
2024/03/15 08:14:02;;;;;;;0.40;0.40;;;26.20;75.40;;;;;;4918992;29;20441;-62
2024/03/15 08:16:33;;;;;;;0.50;0.50;;;26.50;75.00;;;;;;4919702;29;20438;-62
2024/03/15 08:19:04;;;;;;;0.30;0.30;;;26.60;74.50;;;;;;4920255;29;20426;-63
2024/03/15 08:21:30;;;;;;;0.40;0.40;;;26.70;74.10;;;;;;4920032;29;20507;-62
2024/03/15 08:23:57;;;;;;;0.30;0.30;;;26.60;73.40;;;;;;4919925;29;20426;-62
2024/03/15 08:26:22;;;;;;;1.03;0.47;;;26.60;74.30;;;;;;4919584;29;20438;-62
2024/03/15 08:28:51;;;;;;;0.40;0.40;;;26.50;73.70;;;;;;4919882;29;20429;-61
2024/03/15 08:31:17;;;;;;;0.30;0.30;;;26.40;73.90;;;;;;4919826;29;20552;-63
2024/03/15 08:33:44;;;;;;;0.30;0.30;;;26.40;73.70;;;;;;4919958;29;20407;-62
2024/03/15 08:36:10;;;;;;;0.30;0.30;;;26.40;73.90;;;;;;4919652;29;20203;-62
2024/03/15 08:38:37;;;;;;;0.40;0.30;;;26.10;73.70;;;;;;4919840;29;20404;-62
2024/03/15 08:41:03;;;;;;;0.40;0.33;;;26.20;74.30;;;;;;4919698;29;20540;-62
2024/03/15 08:43:30;;;;;;;0.40;0.40;;;26.50;75.40;;;;;;4919719;29;20509;-62
2024/03/15 08:45:56;;;;;;;0.30;0.20;;;26.60;73.10;;;;;;4919243;29;20349;-62
2024/03/15 08:48:22;;;;;;;0.40;0.40;;;26.60;73.10;;;;;;4919651;29;20422;-62
2024/03/15 08:50:47;;;;;;;0.40;0.40;;;26.50;72.90;;;;;;4919412;29;20585;-62
2024/03/15 08:53:13;;;;;;;0.30;0.30;;;26.20;73.20;;;;;;4919484;29;20245;-62
2024/03/15 08:55:41;;;;;;;0.50;0.37;;;26.10;73.90;;;;;;4919044;29;20564;-62
2024/03/15 08:58:07;;;;;;;0.83;0.60;;;26.20;74.40;;;;;;4919637;29;20420;-62
2024/03/15 09:00:32;;;;;;;0.30;0.20;;;26.60;73.30;;;;;;4919436;29;20468;-62
2024/03/15 09:02:58;;;;;;;0.40;0.40;;;26.50;73.00;;;;;;4919352;29;20296;-62
2024/03/15 09:05:24;;;;;;;0.73;0.57;;;27.00;72.90;;;;;;4919160;29;20270;-62
2024/03/15 09:07:50;;;;;;;0.70;0.40;;;27.30;71.80;;;;;;4919498;29;20628;-62
2024/03/15 09:10:16;;;;;;;0.37;0.37;;;27.70;70.10;;;;;;4918830;29;20247;-62
2024/03/15 09:12:42;;;;;;;1.33;0.80;;;27.80;70.10;;;;;;4918776;29;20174;-60
2024/03/15 09:15:08;;;;;;;0.30;0.30;;;28.00;70.80;;;;;;4918910;29;20747;-61
2024/03/15 09:17:34;;;;;;;0.40;0.30;;;28.30;69.80;;;;;;4919139;29;20422;-62
2024/03/15 09:20:09;;;;;;;0.30;0.30;;;28.70;69.40;;;;;;4917940;29;20402;-62
2024/03/15 09:22:35;;;;;;;0.40;0.40;;;29.20;68.80;;;;;;4919329;29;20255;-61
2024/03/15 09:25:00;;;;;;;0.30;0.30;;;29.60;66.60;;;;;;4918871;29;20877;-62
2024/03/15 09:27:27;;;;;;;0.40;0.37;;;30.00;66.80;;;;;;4919067;29;21056;-61
2024/03/15 09:29:53;;;;;;;0.30;0.30;;;29.70;65.40;;;;;;4919060;29;20233;-62
2024/03/15 09:32:21;;;;;;;0.30;0.30;;;29.80;64.90;;;;;;4919008;29;20517;-62
2024/03/15 09:34:49;;;;;;;0.50;0.50;;;29.90;65.70;;;;;;4918594;29;20935;-63
2024/03/15 09:37:14;;;;;;;0.40;0.40;;;30.10;64.70;;;;;;4918791;29;20445;-62
2024/03/15 09:39:41;;;;;;;0.30;0.30;;;30.20;64.20;;;;;;4918849;29;21003;-61
2024/03/15 09:42:17;;;;;;;0.40;0.40;;;30.00;64.80;;;;;;4918940;29;20218;-61
2024/03/15 09:44:47;;;;;;;0.50;0.50;;;29.90;64.30;;;;;;4918618;29;20929;-61
2024/03/15 09:47:13;;;;;;;0.30;0.30;;;30.00;65.70;;;;;;4918612;29;20485;-60
2024/03/15 09:49:41;;;;;;;0.40;0.40;;;30.40;64.50;;;;;;4916684;29;20422;-58
2024/03/15 09:52:11;;;;;;;0.60;0.60;;;30.50;63.80;;;;;;4918238;29;20552;-57
2024/03/15 09:54:36;;;;;;;0.40;0.40;;;30.60;64.30;;;;;;4918119;29;20550;-57
2024/03/15 09:57:05;;;;;;;0.50;0.43;;;30.00;63.80;;;;;;4918041;29;20517;-57
2024/03/15 09:59:35;;;;;;;0.30;0.30;;;29.10;64.60;;;;;;4918417;29;20189;-62
2024/03/15 10:02:08;;;;;;;0.60;0.60;;;27.70;67.90;;;;;;4918258;29;20816;-61
2024/03/15 10:04:35;;;;;;;0.40;0.40;;;26.80;70.40;;;;;;4918124;29;20422;-60
2024/03/15 10:07:01;;;;;;;0.30;0.30;;;25.90;72.30;;;;;;4917821;29;20433;-61
2024/03/15 10:09:27;;;;;;;0.60;0.60;;;25.50;75.20;;;;;;4918075;29;20401;-61
2024/03/15 10:11:52;;;;;;;0.30;0.30;;;25.60;76.30;;;;;;4917774;29;20512;-61
2024/03/15 10:14:18;;;;;;;0.30;0.30;;;26.10;76.40;;;;;;4917913;29;20178;-62
2024/03/15 10:16:44;;;;;;;0.30;0.30;;;25.80;75.80;;;;;;4917259;29;20266;-61
2024/03/15 10:19:13;;;;;;;0.37;0.37;;;25.10;77.90;;;;;;4918028;29;20181;-60
2024/03/15 10:21:38;;;;;;;0.30;0.30;;;24.20;79.30;;;;;;4917523;29;20178;-60
2024/03/15 10:24:04;;;;;;;0.40;0.30;;;23.10;82.20;;;;;;4917760;29;20395;-62
2024/03/15 10:26:30;;;;;;;0.50;0.40;;;22.00;85.60;;;;;;4917124;29;20235;-61
2024/03/15 10:28:55;;;;;;;0.30;0.30;;;21.20;88.60;;;;;;4917642;29;20442;-61
2024/03/15 10:31:21;;;;;;;0.30;0.30;;;20.50;90.50;;;;;;4917589;29;20208;-61
2024/03/15 10:33:47;;;;;;;0.30;0.30;;;20.00;92.10;;;;;;4917539;29;20185;-61
2024/03/15 10:36:12;;;;;;;0.30;0.30;;;19.60;93.80;;;;;;4917083;29;20201;-60
2024/03/15 10:38:38;;;;;;;0.30;0.30;;;19.20;95.10;;;;;;4917401;29;20178;-61
2024/03/15 10:41:06;;;;;;;0.30;0.20;;;19.00;95.90;;;;;;4917247;29;20638;-61
2024/03/15 10:43:32;;;;;;;0.30;0.30;;;18.70;96.40;;;;;;4917495;29;20551;-59
2024/03/15 10:45:57;;;;;;;0.30;0.30;;;18.40;97.70;;;;;;4916677;29;20521;-59
2024/03/15 10:48:26;;;;;;;0.30;0.20;;;18.20;98.70;;;;;;4917617;29;20182;-60
2024/03/15 10:50:54;;;;;;;0.30;0.30;;;18.00;99.50;;;;;;4916101;29;20454;-61
2024/03/15 10:53:21;;;;;;;0.30;0.30;;;17.90;99.90;;;;;;4913911;29;20969;-61
2024/03/15 10:55:49;;;;;;;0.30;0.30;;;17.90;99.90;;;;;;4907736;29;20413;-61
2024/03/15 10:58:15;;;;;;;0.30;0.30;;;17.80;99.90;;;;;;4909597;29;20445;-61
2024/03/15 11:00:42;;;;;;;0.30;0.30;;;17.80;99.90;;;;;;4916909;29;20449;-60
2024/03/15 11:03:25;;;;;;;0.33;0.33;;;17.90;99.90;;;;;;4916699;29;20393;-60
2024/03/15 11:05:51;;;;;;;0.30;0.30;;;18.10;99.90;;;;;;4916438;29;20455;-60
2024/03/15 11:08:21;;;;;;;0.30;0.20;;;18.20;99.90;;;;;;4916733;29;20442;-61
2024/03/15 11:11:01;;;;;;;0.33;0.33;;;18.30;99.90;;;;;;4916729;29;21035;-61
2024/03/15 11:13:36;;;;;;;0.30;0.30;;;18.50;99.70;;;;;;4916113;29;20789;-60
2024/03/15 11:16:17;;;;;;;0.30;0.30;;;18.50;99.10;;;;;;4916484;29;20488;-60
2024/03/15 11:18:42;;;;;;;0.40;0.40;;;18.40;98.70;;;;;;4916813;29;20434;-61
2024/03/15 11:21:19;;;;;;;0.30;0.30;;;18.40;99.00;;;;;;4912327;29;20473;-59
2024/03/15 11:23:44;;;;;;;0.33;0.33;;;18.30;99.10;;;;;;4905922;29;20261;-60
2024/03/15 11:26:10;;;;;;;0.30;0.30;;;18.20;98.80;;;;;;4907925;29;20535;-60
2024/03/15 11:28:39;;;;;;;0.30;0.30;;;18.00;97.90;;;;;;4916827;29;20285;-61
2024/03/15 11:31:24;;;;;;;0.30;0.30;;;18.00;97.80;;;;;;4916700;29;20569;-61
2024/03/15 11:33:53;;;;;;;0.30;0.30;;;18.00;97.50;;;;;;4916318;29;20422;-61
2024/03/15 11:36:20;;;;;;;0.30;0.30;;;17.90;97.60;;;;;;4914820;29;20996;-60
2024/03/15 11:38:46;;;;;;;0.43;0.43;;;17.90;97.30;;;;;;4913490;29;20423;-61
2024/03/15 11:41:12;;;;;;;0.30;0.30;;;17.90;97.40;;;;;;4906574;29;20433;-61
2024/03/15 11:43:37;;;;;;;0.30;0.30;;;17.80;97.50;;;;;;4907054;29;20454;-61
2024/03/15 11:46:03;;;;;;;0.37;0.37;;;17.80;98.00;;;;;;4905077;29;20827;-60
2024/03/15 11:48:31;;;;;;;0.50;0.40;;;17.80;97.40;;;;;;4907697;29;20194;-61
2024/03/15 11:50:56;;;;;;;0.30;0.30;;;17.80;98.10;;;;;;4903093;29;20227;-61
2024/03/15 11:53:22;;;;;;;0.40;0.40;;;17.80;97.50;;;;;;4897441;29;20451;-61
2024/03/15 11:55:50;;;;;;;0.30;0.20;;;17.90;97.50;;;;;;4896990;29;20195;-61
2024/03/15 11:58:19;;;;;;;0.30;0.30;;;18.10;97.30;;;;;;4897541;29;20178;-62
2024/03/15 12:00:51;;;;;;;0.30;0.30;;;18.20;97.40;;;;;;4897657;29;20415;-60
2024/03/15 12:03:18;;;;;;;0.40;0.40;;;18.30;97.30;;;;;;4895751;29;20431;-61
2024/03/15 12:05:44;;;;;;;0.40;0.30;;;18.40;96.80;;;;;;4897124;29;20541;-60
2024/03/15 12:08:21;;;;;;;0.30;0.30;;;18.60;96.20;;;;;;4897123;29;20583;-60
2024/03/15 12:10:48;;;;;;;0.30;0.20;;;18.50;95.20;;;;;;4897775;29;20501;-62
2024/03/15 12:13:14;;;;;;;0.30;0.30;;;18.50;95.40;;;;;;4897151;29;20385;-61
2024/03/15 12:15:40;;;;;;;0.40;0.40;;;18.60;95.40;;;;;;4895618;29;20443;-60
2024/03/15 12:18:13;;;;;;;0.30;0.30;;;18.50;95.40;;;;;;4898116;29;20909;-59
2024/03/15 12:20:39;;;;;;;0.30;0.30;;;18.50;95.30;;;;;;4905227;29;20764;-61
2024/03/15 12:23:05;;;;;;;0.60;0.40;;;18.40;95.40;;;;;;4907080;29;20497;-61
2024/03/15 12:25:30;;;;;;;0.97;0.97;;;18.40;95.60;;;;;;4914169;29;20206;-61
2024/03/15 12:27:56;;;;;;;0.30;0.30;;;18.60;95.80;;;;;;4916408;29;20769;-61
2024/03/15 12:30:22;;;;;;;0.30;0.30;;;18.70;95.60;;;;;;4916305;29;20737;-61
2024/03/15 12:32:47;;;;;;;0.30;0.30;;;18.80;95.30;;;;;;4916261;29;20179;-62
2024/03/15 12:35:13;;;;;;;0.30;0.30;;;18.80;95.20;;;;;;4915878;29;20193;-62
2024/03/15 12:37:38;;;;;;;0.30;0.30;;;18.70;95.40;;;;;;4915888;29;20186;-63
2024/03/15 12:40:14;;;;;;;0.30;0.20;;;18.80;95.30;;;;;;4916329;29;20175;-62
2024/03/15 12:42:40;;;;;;;0.30;0.30;;;18.80;95.20;;;;;;4916172;29;20171;-60
2024/03/15 12:45:08;;;;;;;0.30;0.30;;;19.00;95.20;;;;;;4915650;29;20444;-61
2024/03/15 12:47:36;;;;;;;0.30;0.20;;;19.10;95.00;;;;;;4918661;29;20172;-60
2024/03/15 12:50:13;;;;;;;0.30;0.30;;;19.20;94.80;;;;;;4919279;29;20820;-61
2024/03/15 12:52:39;;;;;;;0.50;0.50;;;19.20;94.10;;;;;;4919029;29;20453;-61
2024/03/15 12:55:12;;;;;;;0.77;0.77;;;19.20;94.00;;;;;;4919080;29;20403;-60
2024/03/15 12:57:37;;;;;;;0.30;0.20;;;19.30;94.10;;;;;;4919297;29;20170;-59
2024/03/15 13:00:11;;;;;;;0.30;0.30;;;19.30;93.90;;;;;;4919183;29;20422;-60
2024/03/15 13:02:37;;;;;;;0.30;0.30;;;19.20;93.40;;;;;;4917897;29;20178;-61
2024/03/15 13:05:05;;;;;;;0.30;0.27;;;19.10;93.20;;;;;;4917593;29;20765;-61
2024/03/15 13:07:32;;;;;;;0.30;0.20;;;19.10;93.30;;;;;;4917412;29;20660;-61
2024/03/15 13:09:58;;;;;;;0.30;0.30;;;19.00;93.50;;;;;;4918421;29;20413;-60
2024/03/15 13:12:23;;;;;;;0.30;0.20;;;19.00;93.00;;;;;;4918770;29;20206;-61
2024/03/15 13:14:50;;;;;;;0.30;0.30;;;19.00;93.10;;;;;;4918927;29;20170;-61
2024/03/15 13:17:15;;;;;;;0.30;0.30;;;19.00;93.30;;;;;;4918434;29;20426;-62
2024/03/15 13:19:41;;;;;;;0.30;0.30;;;18.90;92.80;;;;;;4918654;29;20179;-61
2024/03/15 13:22:07;;;;;;;0.30;0.20;;;18.90;92.70;;;;;;4918676;29;20182;-60
2024/03/15 13:24:32;;;;;;;0.30;0.30;;;18.90;92.50;;;;;;4917749;29;20397;-62
2024/03/15 13:26:58;;;;;;;0.30;0.30;;;18.90;92.30;;;;;;4917899;29;20707;-61
2024/03/15 13:29:24;;;;;;;0.30;0.20;;;19.00;92.60;;;;;;4918259;29;20182;-61
2024/03/15 13:31:49;;;;;;;0.40;0.40;;;19.00;92.80;;;;;;4918124;29;20261;-62
2024/03/15 13:34:15;;;;;;;0.30;0.30;;;19.10;92.40;;;;;;4918142;29;20176;-62
2024/03/15 13:36:40;;;;;;;0.30;0.20;;;19.30;92.40;;;;;;4917644;29;20217;-60
2024/03/15 13:39:19;;;;;;;0.30;0.20;;;19.30;92.10;;;;;;4918257;29;20178;-62
2024/03/15 13:41:49;;;;;;;0.30;0.20;;;19.20;91.30;;;;;;4917938;29;20174;-61
2024/03/15 13:44:15;;;;;;;0.40;0.40;;;19.10;91.60;;;;;;4918562;29;20517;-61
2024/03/15 13:46:44;;;;;;;0.37;0.37;;;19.00;91.90;;;;;;4918149;29;20508;-60
2024/03/15 13:49:10;;;;;;;0.30;0.20;;;18.90;92.10;;;;;;4918437;29;20952;-61
2024/03/15 13:51:37;;;;;;;0.30;0.30;;;18.70;92.50;;;;;;4918483;29;21021;-61
2024/03/15 13:54:02;;;;;;;0.30;0.30;;;18.50;92.70;;;;;;4918652;29;20381;-61
2024/03/15 13:56:35;;;;;;;0.30;0.30;;;18.40;92.80;;;;;;4917799;29;20434;-61
2024/03/15 13:59:01;;;;;;;0.30;0.30;;;18.20;93.10;;;;;;4918006;29;20452;-61
2024/03/15 14:01:26;;;;;;;0.30;0.20;;;18.10;93.30;;;;;;4917059;29;20426;-60
2024/03/15 14:03:52;;;;;;;0.30;0.30;;;18.00;93.50;;;;;;4918326;29;20408;-61
2024/03/15 14:06:18;;;;;;;0.30;0.30;;;18.00;93.70;;;;;;4917917;29;20228;-61
2024/03/15 14:08:44;;;;;;;0.30;0.20;;;17.80;93.90;;;;;;4918230;29;20213;-60
2024/03/15 14:11:10;;;;;;;0.30;0.30;;;17.80;94.30;;;;;;4918180;29;20454;-60
2024/03/15 14:13:35;;;;;;;0.30;0.30;;;17.80;94.40;;;;;;4918357;29;20202;-60
2024/03/15 14:16:01;;;;;;;0.30;0.30;;;17.70;94.20;;;;;;4917843;29;20196;-61
2024/03/15 14:18:31;;;;;;;0.40;0.40;;;17.80;93.10;;;;;;4918036;29;20178;-61
2024/03/15 14:20:57;;;;;;;0.30;0.20;;;17.80;92.80;;;;;;4918234;29;20265;-60
2024/03/15 14:23:26;;;;;;;0.30;0.20;;;17.90;92.90;;;;;;4916561;29;20469;-60
2024/03/15 14:25:52;;;;;;;0.30;0.30;;;17.90;93.00;;;;;;4917460;29;20336;-61
2024/03/15 14:28:17;;;;;;;0.40;0.40;;;17.90;92.70;;;;;;4918206;29;20422;-60
2024/03/15 14:30:44;;;;;;;0.30;0.30;;;17.80;93.10;;;;;;4917708;29;20281;-61
2024/03/15 14:33:09;;;;;;;0.30;0.30;;;17.80;93.70;;;;;;4917981;29;20182;-62
2024/03/15 14:35:35;;;;;;;0.30;0.30;;;17.80;93.80;;;;;;4917534;29;20434;-61
2024/03/15 14:38:04;;;;;;;1.13;1.03;;;17.80;93.80;;;;;;4917994;29;20201;-61
2024/03/15 14:40:34;;;;;;;0.30;0.30;;;17.80;93.90;;;;;;4917858;29;20525;-60
2024/03/15 14:43:00;;;;;;;0.30;0.30;;;17.70;94.40;;;;;;4917610;29;20385;-61
2024/03/15 14:45:30;;;;;;;0.30;0.30;;;17.60;94.70;;;;;;4917258;29;20415;-62
2024/03/15 14:47:56;;;;;;;0.93;0.93;;;17.40;94.90;;;;;;4917885;29;20405;-61
2024/03/15 14:50:29;;;;;;;0.30;0.20;;;17.30;95.40;;;;;;4917742;29;20453;-62
2024/03/15 14:52:56;;;;;;;0.30;0.30;;;17.20;95.30;;;;;;4917680;29;20485;-61
2024/03/15 14:55:27;;;;;;;0.30;0.30;;;17.20;95.30;;;;;;4915919;29;20414;-61
2024/03/15 14:57:52;;;;;;;0.70;0.70;;;17.10;95.40;;;;;;4917524;29;20418;-61
2024/03/15 15:00:19;;;;;;;0.30;0.20;;;17.10;95.40;;;;;;4917569;29;20911;-61
2024/03/15 15:02:47;;;;;;;0.30;0.30;;;17.10;95.70;;;;;;4917420;29;20452;-60
2024/03/15 15:05:13;;;;;;;0.30;0.30;;;17.20;95.80;;;;;;4916888;29;20461;-61
2024/03/15 15:07:39;;;;;;;0.30;0.30;;;17.20;95.80;;;;;;4917185;29;20887;-60
2024/03/15 15:10:10;;;;;;;0.40;0.40;;;17.20;95.50;;;;;;4916600;29;20411;-60
2024/03/15 15:12:36;;;;;;;0.30;0.30;;;17.30;95.40;;;;;;4917374;29;20546;-60
2024/03/15 15:15:06;;;;;;;0.30;0.30;;;17.40;95.10;;;;;;4917063;29;20834;-61
2024/03/15 15:17:31;;;;;;;0.30;0.20;;;17.50;95.00;;;;;;4917294;29;20785;-60
2024/03/15 15:19:57;;;;;;;0.30;0.30;;;17.60;94.80;;;;;;4917323;29;20377;-61
2024/03/15 15:22:23;;;;;;;0.30;0.30;;;17.60;94.40;;;;;;4916955;29;20248;-61
2024/03/15 15:24:49;;;;;;;0.30;0.30;;;17.60;94.10;;;;;;4916835;29;20186;-61
2024/03/15 15:27:15;;;;;;;0.30;0.30;;;17.50;93.70;;;;;;4915581;29;20703;-61
2024/03/15 15:29:40;;;;;;;0.30;0.30;;;17.40;93.80;;;;;;4917004;29;20401;-61
2024/03/15 15:32:07;;;;;;;0.60;0.60;;;17.40;94.10;;;;;;4916908;29;20220;-59
2024/03/15 15:34:33;;;;;;;0.30;0.30;;;17.30;94.50;;;;;;4916637;29;20179;-60
2024/03/15 15:36:58;;;;;;;0.30;0.30;;;17.10;94.60;;;;;;4916970;29;20423;-59
2024/03/15 15:39:24;;;;;;;0.30;0.30;;;17.00;94.90;;;;;;4917009;29;20183;-61
2024/03/15 15:41:50;;;;;;;0.30;0.30;;;17.00;95.40;;;;;;4916899;29;20237;-60
2024/03/15 15:44:16;;;;;;;0.30;0.30;;;16.80;95.70;;;;;;4916940;29;20181;-61
2024/03/15 15:46:44;;;;;;;0.30;0.30;;;16.70;96.10;;;;;;4916524;29;20452;-60
2024/03/15 15:49:11;;;;;;;0.30;0.30;;;16.70;96.30;;;;;;4916812;29;20446;-60
2024/03/15 15:51:37;;;;;;;0.30;0.30;;;16.60;96.80;;;;;;4916565;29;20820;-61
2024/03/15 15:54:04;;;;;;;0.30;0.30;;;16.60;96.80;;;;;;4916709;29;20425;-61
2024/03/15 15:56:31;;;;;;;0.40;0.40;;;16.60;97.00;;;;;;4916128;29;20430;-61
2024/03/15 15:58:57;;;;;;;0.30;0.30;;;16.50;96.90;;;;;;4915385;29;20429;-61
2024/03/15 16:01:22;;;;;;;0.30;0.30;;;16.50;97.00;;;;;;4916541;29;20438;-60
2024/03/15 16:03:48;;;;;;;0.30;0.30;;;16.40;97.30;;;;;;4916360;29;20436;-61
2024/03/15 16:06:14;;;;;;;0.30;0.30;;;16.40;97.60;;;;;;4916280;29;20257;-60
2024/03/15 16:08:41;;;;;;;0.30;0.30;;;16.40;97.90;;;;;;4916574;29;20746;-60
2024/03/15 16:11:17;;;;;;;0.30;0.30;;;16.30;98.20;;;;;;4899681;29;20216;-60
2024/03/15 16:13:42;;;;;;;0.30;0.30;;;16.30;98.30;;;;;;4916562;29;20425;-61
2024/03/15 16:16:08;;;;;;;0.30;0.30;;;16.30;98.20;;;;;;4916003;29;20446;-61
2024/03/15 16:18:36;;;;;;;0.30;0.30;;;16.30;98.30;;;;;;4916710;29;20256;-61
2024/03/15 16:21:07;;;;;;;0.30;0.30;;;16.30;98.20;;;;;;4918877;29;20249;-61
2024/03/15 16:23:36;;;;;;;0.30;0.30;;;16.30;98.10;;;;;;4920460;29;20489;-60
2024/03/15 16:26:02;;;;;;;0.40;0.40;;;16.40;98.10;;;;;;4919752;29;20427;-59
2024/03/15 16:28:28;;;;;;;0.40;0.40;;;16.40;98.00;;;;;;4920206;29;20469;-59
2024/03/15 16:30:55;;;;;;;0.30;0.30;;;16.40;98.00;;;;;;4920026;29;20428;-59
2024/03/15 16:33:21;;;;;;;0.30;0.30;;;16.40;98.00;;;;;;4919988;29;20418;-60
2024/03/15 16:35:47;;;;;;;0.30;0.30;;;16.30;97.90;;;;;;4919751;29;20966;-60
2024/03/15 16:38:13;;;;;;;0.30;0.30;;;16.30;98.00;;;;;;4919921;29;20268;-60
2024/03/15 16:40:39;;;;;;;0.30;0.30;;;16.20;97.90;;;;;;4919877;29;20935;-60
2024/03/15 16:43:04;;;;;;;0.30;0.20;;;16.10;98.00;;;;;;4919835;29;20533;-60
2024/03/15 16:45:30;;;;;;;0.30;0.30;;;16.00;98.00;;;;;;4919434;29;20412;-60
2024/03/15 16:47:56;;;;;;;0.30;0.30;;;16.00;98.10;;;;;;4919690;29;20178;-60
2024/03/15 16:50:24;;;;;;;0.60;0.60;;;15.90;98.00;;;;;;4918239;29;20425;-60
2024/03/15 16:52:50;;;;;;;0.30;0.30;;;16.00;98.20;;;;;;4919906;29;20252;-60
2024/03/15 16:55:17;;;;;;;0.30;0.30;;;15.80;98.60;;;;;;4917849;29;20508;-61
2024/03/15 16:57:43;;;;;;;0.30;0.30;;;15.70;98.70;;;;;;4919652;29;20776;-60
2024/03/15 17:00:21;;;;;;;0.30;0.20;;;15.80;98.70;;;;;;4919384;29;20482;-61
2024/03/15 17:02:50;;;;;;;0.30;0.30;;;15.80;98.60;;;;;;4919624;29;20276;-60
2024/03/15 17:05:15;;;;;;;0.30;0.30;;;15.70;98.70;;;;;;4919209;29;20399;-61
2024/03/15 17:07:42;;;;;;;0.40;0.40;;;15.70;98.80;;;;;;4919213;29;20550;-61
2024/03/15 17:10:09;;;;;;;0.30;0.30;;;15.70;98.70;;;;;;4919251;29;20540;-60
2024/03/15 17:12:37;;;;;;;0.30;0.30;;;15.70;98.60;;;;;;4919286;29;20495;-61
2024/03/15 17:15:04;;;;;;;0.30;0.30;;;15.60;98.60;;;;;;4918806;29;20396;-61
2024/03/15 17:17:31;;;;;;;0.30;0.30;;;15.60;98.60;;;;;;4919510;29;20436;-61
2024/03/15 17:19:58;;;;;;;0.30;0.30;;;15.60;98.60;;;;;;4919089;29;20400;-60
2024/03/15 17:22:24;;;;;;;0.30;0.20;;;15.60;98.60;;;;;;4918929;29;20533;-61
2024/03/15 17:24:50;;;;;;;0.33;0.33;;;15.50;98.80;;;;;;4917475;29;20800;-63
2024/03/15 17:27:15;;;;;;;0.30;0.30;;;15.50;98.90;;;;;;4919577;29;20411;-61
2024/03/15 17:29:42;;;;;;;0.30;0.30;;;15.40;99.10;;;;;;4917828;29;20187;-60
2024/03/15 17:32:08;;;;;;;0.30;0.30;;;15.40;98.90;;;;;;4918050;29;20235;-60
2024/03/15 17:34:33;;;;;;;0.30;0.30;;;15.40;98.80;;;;;;4918708;29;20445;-61
2024/03/15 17:36:59;;;;;;;0.30;0.27;;;15.30;99.10;;;;;;4917739;29;20212;-61
2024/03/15 17:39:25;;;;;;;0.30;0.30;;;15.30;99.20;;;;;;4918702;29;20244;-61
2024/03/15 17:41:51;;;;;;;0.50;0.50;;;15.20;99.30;;;;;;4918771;29;20423;-61
2024/03/15 17:44:17;;;;;;;0.30;0.30;;;15.10;99.20;;;;;;4918702;29;20423;-59
2024/03/15 17:46:42;;;;;;;0.30;0.30;;;15.10;98.80;;;;;;4918237;29;20790;-61
2024/03/15 17:49:08;;;;;;;0.30;0.30;;;15.10;98.60;;;;;;4917324;29;20195;-60
2024/03/15 17:51:34;;;;;;;0.30;0.30;;;15.10;98.40;;;;;;4918664;29;20217;-62
2024/03/15 17:54:00;;;;;;;0.30;0.30;;;15.10;98.30;;;;;;4918705;29;20268;-62
2024/03/15 17:56:26;;;;;;;0.87;0.40;;;15.10;98.10;;;;;;4917945;29;20347;-61